createdAt,value
2023-02-23T00:02:14.095Z,28.90
2023-02-23T00:04:58.075Z,28.50
2023-02-23T00:07:49.234Z,26.60
2023-02-23T00:10:35.643Z,25.80
2023-02-23T00:13:20.426Z,24.10
2023-02-23T00:16:06.931Z,25.30
2023-02-23T00:18:55.767Z,28.60
2023-02-23T00:21:39.120Z,30.30
2023-02-23T00:24:27.212Z,28.90
2023-02-23T00:27:18.104Z,28.30
2023-02-23T00:30:04.294Z,23.40
2023-02-23T00:32:48.114Z,27.80
2023-02-23T00:35:33.605Z,23.90
2023-02-23T00:38:19.685Z,30.20
2023-02-23T00:41:14.374Z,32.40
2023-02-23T00:43:59.498Z,25.40
2023-02-23T00:46:44.794Z,30.20
2023-02-23T00:49:28.957Z,24.90
2023-02-23T00:52:14.756Z,26.10
2023-02-23T00:54:57.778Z,28.40
2023-02-23T00:57:42.297Z,32.10
2023-02-23T01:00:26.801Z,32.70
2023-02-23T01:03:11.627Z,26.10
2023-02-23T01:05:55.427Z,29.90
2023-02-23T01:08:44.285Z,28.40
2023-02-23T01:11:28.536Z,26.60
2023-02-23T01:14:11.552Z,26.80
2023-02-23T01:16:55.621Z,25.20
2023-02-23T01:19:38.951Z,27.90
2023-02-23T01:22:22.398Z,27.60
2023-02-23T01:25:06.329Z,28.40
2023-02-23T01:27:50.614Z,30.20
2023-02-23T01:30:35.758Z,28.80
2023-02-23T01:33:20.899Z,26.40
2023-02-23T01:36:05.732Z,24.30
2023-02-23T01:38:49.827Z,28.90
2023-02-23T01:41:33.836Z,29.60
2023-02-23T01:44:19.558Z,32.00
2023-02-23T01:47:02.602Z,33.00
2023-02-23T01:49:47.844Z,26.70
2023-02-23T01:52:38.017Z,25.40
2023-02-23T01:55:24.630Z,28.10
2023-02-23T01:58:15.561Z,27.00
2023-02-23T02:01:04.302Z,34.50
2023-02-23T02:04:39.073Z,29.60
2023-02-23T02:08:27.751Z,32.80
2023-02-23T02:12:17.108Z,31.00
2023-02-23T02:15:53.902Z,35.70
2023-02-23T02:19:49.488Z,30.60
2023-02-23T02:24:16.370Z,30.70
2023-02-23T02:28:18.350Z,30.70
2023-02-23T02:32:05.704Z,30.30
2023-02-23T02:36:04.415Z,29.40
2023-02-23T02:40:06.181Z,28.80
2023-02-23T02:44:05.683Z,32.60
2023-02-23T02:48:02.830Z,32.50
2023-02-23T02:51:55.192Z,35.30
2023-02-23T02:56:10.936Z,29.70
2023-02-23T03:00:21.774Z,28.80
2023-02-23T03:04:26.808Z,36.70
2023-02-23T03:08:44.006Z,33.00
2023-02-23T03:12:48.973Z,33.00
2023-02-23T03:16:54.168Z,32.00
2023-02-23T03:21:04.615Z,33.20
2023-02-23T03:24:39.514Z,30.60
2023-02-23T03:28:28.207Z,31.30
2023-02-23T03:32:08.757Z,29.70
2023-02-23T03:36:32.200Z,34.30
2023-02-23T03:40:35.603Z,30.70
2023-02-23T03:44:37.819Z,35.10
2023-02-23T03:48:31.243Z,30.60
2023-02-23T03:52:16.952Z,31.40
2023-02-23T03:56:19.254Z,30.50
2023-02-23T04:00:24.408Z,31.30
2023-02-23T04:04:24.911Z,31.70
2023-02-23T04:07:58.322Z,28.20
2023-02-23T04:11:43.436Z,31.20
2023-02-23T04:15:32.706Z,31.70
2023-02-23T04:19:29.534Z,31.70
2023-02-23T04:23:33.573Z,29.10
2023-02-23T04:27:37.477Z,32.20
2023-02-23T04:31:31.184Z,32.80
2023-02-23T04:35:35.184Z,30.40
2023-02-23T04:39:19.364Z,33.00
2023-02-23T04:43:15.932Z,34.00
2023-02-23T04:47:19.771Z,28.40
2023-02-23T04:51:13.600Z,32.10
2023-02-23T04:55:20.266Z,28.30
2023-02-23T04:59:13.932Z,31.20
2023-02-23T05:03:07.716Z,32.60
2023-02-23T05:06:49.552Z,29.20
2023-02-23T05:10:43.067Z,26.90
2023-02-23T05:14:26.877Z,32.10
2023-02-23T05:17:58.360Z,27.90
2023-02-23T05:22:02.232Z,28.40
2023-02-23T05:26:04.989Z,32.30
2023-02-23T05:29:48.726Z,31.00
2023-02-23T05:33:42.483Z,33.20
2023-02-23T05:37:37.050Z,32.70
2023-02-23T05:41:41.099Z,31.80
2023-02-23T05:45:24.885Z,34.20
2023-02-23T05:49:18.538Z,44.20
2023-02-23T05:53:07.471Z,39.20
2023-02-23T05:56:53.167Z,30.00
2023-02-23T06:00:37.978Z,31.60
2023-02-23T06:04:34.551Z,31.50
2023-02-23T06:08:01.840Z,34.60
2023-02-23T06:12:05.810Z,36.70
2023-02-23T06:16:09.881Z,45.10
2023-02-23T06:20:13.795Z,35.50
2023-02-23T06:24:11.003Z,32.10
2023-02-23T06:28:14.877Z,35.60
2023-02-23T06:32:00.808Z,36.20
2023-02-23T06:35:26.196Z,38.80
2023-02-23T06:39:03.906Z,37.00
2023-02-23T06:42:37.351Z,34.70
2023-02-23T06:46:21.258Z,34.60
2023-02-23T06:50:15.029Z,37.10
2023-02-23T06:54:19.122Z,31.40
2023-02-23T06:58:21.919Z,32.20
2023-02-23T07:02:25.790Z,36.90
2023-02-23T07:05:34.670Z,36.70
2023-02-23T07:08:38.799Z,34.10
2023-02-23T07:12:02.435Z,39.20
2023-02-23T07:16:06.361Z,41.50
2023-02-23T07:20:10.275Z,34.20
2023-02-23T07:24:15.892Z,36.90
2023-02-23T07:27:58.690Z,35.40
2023-02-23T07:31:40.834Z,33.30
2023-02-23T07:35:06.759Z,35.30
2023-02-23T07:38:41.374Z,33.30
2023-02-23T07:42:26.921Z,35.70
2023-02-23T07:45:40.454Z,35.20
2023-02-23T07:49:09.143Z,30.90
2023-02-23T07:52:04.309Z,34.90
2023-02-23T07:54:57.782Z,34.20
2023-02-23T07:58:01.482Z,33.70
2023-02-23T08:00:44.627Z,28.80
2023-02-23T08:03:38.007Z,33.40
2023-02-23T08:06:23.346Z,29.60
2023-02-23T08:09:10.745Z,28.30
2023-02-23T08:12:25.502Z,25.40
2023-02-23T08:15:18.914Z,28.10
2023-02-23T08:18:05.265Z,26.60
2023-02-23T08:21:00.125Z,28.90
2023-02-23T08:23:56.095Z,29.70
2023-02-23T08:27:02.854Z,31.80
2023-02-23T08:30:17.652Z,33.60
2023-02-23T08:33:32.228Z,31.30
2023-02-23T08:36:47.677Z,34.60
2023-02-23T08:40:26.162Z,31.10
2023-02-23T08:43:44.092Z,36.20
2023-02-23T08:47:08.152Z,36.50
2023-02-23T08:53:38.576Z,34.60
2023-02-23T08:57:24.735Z,41.30
2023-02-23T09:01:18.901Z,31.80
2023-02-23T09:04:55.794Z,32.60
2023-02-23T09:08:39.568Z,37.40
2023-02-23T09:11:59.155Z,38.70
2023-02-23T09:15:52.567Z,41.60
2023-02-23T09:19:21.259Z,37.40
2023-02-23T09:23:18.758Z,37.20
2023-02-23T09:27:03.542Z,36.20
2023-02-23T09:30:57.350Z,35.80
2023-02-23T09:34:30.820Z,37.80
2023-02-23T09:38:34.663Z,38.80
2023-02-23T09:42:44.022Z,39.40
2023-02-23T09:46:52.081Z,43.90
2023-02-23T09:50:47.181Z,41.10
2023-02-23T09:54:44.184Z,31.90
2023-02-23T09:58:16.279Z,39.30
2023-02-23T10:02:29.107Z,35.60
2023-02-23T10:06:12.860Z,37.50
2023-02-23T10:10:05.410Z,42.70
2023-02-23T10:14:24.895Z,36.90
2023-02-23T10:18:45.251Z,41.20
2023-02-23T10:22:43.609Z,37.70
2023-02-23T10:26:38.294Z,43.60
2023-02-23T10:30:26.965Z,36.50
2023-02-23T10:34:27.838Z,37.10
2023-02-23T10:38:30.632Z,38.00
2023-02-23T10:41:56.456Z,38.10
2023-02-23T10:45:44.744Z,38.50
2023-02-23T10:49:37.131Z,39.70
2023-02-23T10:53:42.768Z,38.30
2023-02-23T10:57:35.542Z,41.20
2023-02-23T11:01:28.927Z,36.40
2023-02-23T11:05:21.982Z,38.00
2023-02-23T11:13:18.567Z,37.40
2023-02-23T11:17:21.018Z,39.20
2023-02-23T11:21:14.904Z,37.70
2023-02-23T11:25:18.780Z,40.10
2023-02-23T11:29:02.291Z,39.90
2023-02-23T11:33:10.848Z,39.50
2023-02-23T11:37:05.990Z,38.40
2023-02-23T11:41:02.044Z,41.10
2023-02-23T11:44:56.485Z,36.70
2023-02-23T11:48:47.332Z,40.60
2023-02-23T11:52:45.107Z,42.30
2023-02-23T11:56:31.457Z,37.40
2023-02-23T12:00:24.427Z,41.40
2023-02-23T12:04:18.386Z,45.00
2023-02-23T12:08:11.482Z,40.30
2023-02-23T12:12:18.137Z,40.60
2023-02-23T12:16:19.526Z,39.20
2023-02-23T12:20:19.493Z,39.60
2023-02-23T12:24:13.263Z,41.80
2023-02-23T12:28:16.921Z,40.30
2023-02-23T12:32:40.609Z,41.70
2023-02-23T12:36:36.323Z,39.40
2023-02-23T12:40:25.343Z,37.80
2023-02-23T12:44:25.413Z,45.30
2023-02-23T12:48:26.984Z,50.50
2023-02-23T12:52:09.234Z,44.80
2023-02-23T12:56:15.666Z,42.80
2023-02-23T13:00:40.813Z,43.20
2023-02-23T13:04:56.476Z,34.20
2023-02-23T13:08:59.740Z,41.60
2023-02-23T13:13:02.559Z,41.90
2023-02-23T13:17:05.489Z,42.10
2023-02-23T13:21:02.403Z,44.80
2023-02-23T13:25:09.034Z,42.10
2023-02-23T13:29:08.299Z,45.00
2023-02-23T13:33:14.945Z,41.80
2023-02-23T13:36:34.722Z,42.50
2023-02-23T13:40:36.120Z,41.80
2023-02-23T13:44:19.076Z,43.50
2023-02-23T13:48:23.951Z,50.30
2023-02-23T13:52:13.580Z,40.80
2023-02-23T13:56:06.528Z,48.00
2023-02-23T14:00:03.044Z,46.00
2023-02-23T14:03:20.650Z,43.40
2023-02-23T14:07:14.394Z,42.50
2023-02-23T14:11:11.155Z,45.00
2023-02-23T14:15:03.698Z,43.10
2023-02-23T14:19:26.112Z,43.60
2023-02-23T14:23:19.434Z,42.10
2023-02-23T14:27:41.120Z,43.80
2023-02-23T14:31:33.864Z,41.90
2023-02-23T14:35:51.816Z,42.10
2023-02-23T14:39:50.982Z,47.70
2023-02-23T14:43:52.248Z,46.90
2023-02-23T14:47:59.284Z,45.10
2023-02-23T14:52:05.000Z,45.50
2023-02-23T14:56:11.936Z,44.40
2023-02-23T15:00:00.521Z,45.10
2023-02-23T15:04:07.186Z,48.50
2023-02-23T15:07:55.314Z,46.10
2023-02-23T15:11:55.798Z,46.40
2023-02-23T15:15:25.575Z,44.00
2023-02-23T15:19:12.868Z,42.30
2023-02-23T15:23:16.825Z,43.60
2023-02-23T15:26:47.417Z,43.90
2023-02-23T15:30:31.229Z,47.10
2023-02-23T15:34:17.195Z,49.00
2023-02-23T15:38:24.686Z,46.30
2023-02-23T15:42:13.685Z,51.00
2023-02-23T15:45:39.777Z,48.40
2023-02-23T15:49:32.318Z,48.40
2023-02-23T15:53:15.032Z,57.50
2023-02-23T15:57:22.103Z,54.50
2023-02-23T16:01:17.275Z,62.60
2023-02-23T16:04:58.396Z,47.80
2023-02-23T16:09:05.329Z,46.20
2023-02-23T16:12:34.688Z,50.00
2023-02-23T16:16:13.535Z,47.60
2023-02-23T16:19:05.176Z,41.50
2023-02-23T16:22:39.866Z,46.60
2023-02-23T16:26:29.339Z,48.30
2023-02-23T16:30:39.320Z,54.50
2023-02-23T16:34:37.378Z,47.60
2023-02-23T16:38:50.333Z,49.80
2023-02-23T16:43:03.181Z,50.80
2023-02-23T16:47:07.214Z,58.60
2023-02-23T16:51:03.859Z,62.20
2023-02-23T16:54:57.568Z,68.10
2023-02-23T16:58:44.276Z,91.90
2023-02-23T17:02:48.460Z,89.10
2023-02-23T17:06:42.499Z,95.20
2023-02-23T17:10:49.320Z,86.30
2023-02-23T17:14:53.362Z,81.60
2023-02-23T17:18:57.233Z,82.30
2023-02-23T17:22:54.404Z,60.90
2023-02-23T17:26:56.975Z,63.30
2023-02-23T17:30:33.481Z,59.70
2023-02-23T17:34:27.234Z,65.40
2023-02-23T17:38:31.069Z,61.20
2023-02-23T17:42:06.898Z,55.40
2023-02-23T17:46:10.795Z,56.70
2023-02-23T17:50:14.752Z,60.80
2023-02-23T17:54:18.605Z,60.40
2023-02-23T17:58:13.168Z,61.60
2023-02-23T18:01:56.984Z,56.00
2023-02-23T18:06:00.902Z,61.20
2023-02-23T18:13:19.887Z,61.70
2023-02-23T18:17:00.105Z,60.20
2023-02-23T18:21:04.147Z,65.80
2023-02-23T18:24:44.946Z,73.10
2023-02-23T18:28:42.532Z,69.70
2023-02-23T18:32:39.868Z,67.00
2023-02-23T18:36:43.946Z,68.80
2023-02-23T18:40:47.907Z,61.30
2023-02-23T18:44:44.459Z,68.50
2023-02-23T18:48:48.430Z,64.50
2023-02-23T18:52:52.296Z,68.60
2023-02-23T18:56:40.253Z,58.90
2023-02-23T19:00:30.306Z,63.80
2023-02-23T19:04:13.355Z,60.70
2023-02-23T19:08:05.923Z,58.30
2023-02-23T19:12:09.784Z,64.40
2023-02-23T19:15:55.768Z,63.70
2023-02-23T19:19:50.090Z,60.70
2023-02-23T19:23:44.044Z,60.40
2023-02-23T19:27:47.952Z,70.00
2023-02-23T19:31:36.110Z,73.90
2023-02-23T19:35:40.088Z,76.50
2023-02-23T19:39:44.008Z,72.30
2023-02-23T19:43:40.327Z,79.10
2023-02-23T19:47:44.749Z,75.10
2023-02-23T19:51:37.514Z,75.40
2023-02-23T19:55:41.445Z,72.10
2023-02-23T19:59:25.468Z,82.70
2023-02-23T20:03:03.615Z,75.80
2023-02-23T20:07:07.698Z,81.60
2023-02-23T20:14:24.997Z,77.30
2023-02-23T20:18:13.362Z,81.10
2023-02-23T20:21:40.284Z,80.50
2023-02-23T20:25:44.235Z,80.80
2023-02-23T20:29:28.816Z,77.90
2023-02-23T20:33:28.700Z,86.70
2023-02-23T20:37:31.342Z,84.30
2023-02-23T20:41:26.120Z,81.40
2023-02-23T20:49:03.988Z,77.70
2023-02-23T20:52:57.669Z,80.30
2023-02-23T20:56:48.795Z,73.00
2023-02-23T21:00:52.970Z,71.10
2023-02-23T21:04:48.445Z,69.60
2023-02-23T21:08:52.361Z,77.40
2023-02-23T21:12:46.100Z,78.60
2023-02-23T21:16:42.561Z,82.50
2023-02-23T21:20:46.501Z,75.40
2023-02-23T21:24:31.556Z,80.30
2023-02-23T21:28:12.211Z,84.20
2023-02-23T21:32:06.218Z,85.50
2023-02-23T21:36:10.244Z,88.80
2023-02-23T21:39:57.359Z,90.20
2023-02-23T21:43:43.802Z,95.90
2023-02-23T21:47:47.762Z,99.50
2023-02-23T21:51:33.860Z,102.90
2023-02-23T21:55:27.720Z,99.20
2023-02-23T21:59:27.088Z,96.90
2023-02-23T22:03:14.153Z,101.60
2023-02-23T22:07:18.136Z,106.60
2023-02-23T22:10:51.699Z,96.20
2023-02-23T22:14:21.733Z,97.60
2023-02-23T22:18:18.234Z,105.30
2023-02-23T22:21:42.031Z,96.70
2023-02-23T22:25:15.748Z,97.10
2023-02-23T22:29:19.616Z,94.10
2023-02-23T22:32:38.364Z,95.20
2023-02-23T22:36:10.913Z,100.40
2023-02-23T22:39:55.571Z,102.10
2023-02-23T22:43:50.502Z,93.20
2023-02-23T22:47:34.177Z,104.50
2023-02-23T22:51:14.566Z,97.40
2023-02-23T22:55:18.446Z,91.10
2023-02-23T22:59:02.381Z,95.10
2023-02-23T23:02:48.374Z,91.70
2023-02-23T23:06:46.334Z,90.50
2023-02-23T23:10:16.061Z,87.10
2023-02-23T23:14:19.922Z,91.30
2023-02-23T23:18:14.764Z,84.40
2023-02-23T23:22:05.726Z,81.90
2023-02-23T23:25:41.756Z,82.80
2023-02-23T23:29:45.348Z,84.90
2023-02-23T23:33:20.019Z,79.20
2023-02-23T23:37:07.819Z,83.40
2023-02-23T23:40:58.079Z,82.00
2023-02-23T23:44:45.235Z,77.00
2023-02-23T23:48:37.750Z,79.60
2023-02-23T23:52:31.642Z,76.20
2023-02-23T23:56:20.131Z,78.20
2023-02-23T23:59:48.249Z,70.80
